createdAt,value
2016-06-24T00:00:21.214Z,0
2016-06-24T00:01:19.385Z,0
2016-06-24T00:02:19.995Z,0
2016-06-24T00:03:21.220Z,0
2016-06-24T00:04:24.371Z,0
2016-06-24T00:05:20.438Z,0
2016-06-24T00:06:35.589Z,0
2016-06-24T00:07:20.701Z,0
2016-06-24T00:08:20.024Z,0
2016-06-24T00:09:20.009Z,0
2016-06-24T00:10:19.405Z,0
2016-06-24T00:11:20.666Z,0
2016-06-24T00:12:20.013Z,0
2016-06-24T00:13:19.384Z,0
2016-06-24T00:14:19.408Z,0
2016-06-24T00:15:20.014Z,0
2016-06-24T00:16:19.489Z,0
2016-06-24T00:17:20.647Z,0
2016-06-24T00:18:21.253Z,0
2016-06-24T00:19:19.417Z,0
2016-06-24T00:20:20.656Z,0
2016-06-24T00:21:19.424Z,0
2016-06-24T00:22:20.030Z,0
2016-06-24T00:23:20.035Z,0
2016-06-24T00:24:20.637Z,0
2016-06-24T00:25:20.043Z,0
2016-06-24T00:26:20.648Z,0
2016-06-24T00:27:19.427Z,0
2016-06-24T00:28:19.435Z,0
2016-06-24T00:29:20.050Z,0
2016-06-24T00:30:20.051Z,0
2016-06-24T00:31:20.039Z,0
2016-06-24T00:32:20.653Z,0
2016-06-24T00:33:20.645Z,0
2016-06-24T00:34:19.438Z,0
2016-06-24T00:35:20.048Z,0
2016-06-24T00:36:18.842Z,0
2016-06-24T00:37:19.451Z,0
2016-06-24T00:38:20.048Z,0
2016-06-24T00:39:18.833Z,0
2016-06-24T00:40:19.450Z,0
2016-06-24T00:41:20.663Z,0
2016-06-24T00:42:19.465Z,0
2016-06-24T00:43:19.442Z,0
2016-06-24T00:44:20.065Z,0
2016-06-24T00:45:19.457Z,0
2016-06-24T00:46:20.050Z,0
2016-06-24T00:47:20.089Z,0
2016-06-24T00:48:20.073Z,0
2016-06-24T00:49:19.476Z,0
2016-06-24T00:50:18.850Z,0
2016-06-24T00:51:20.070Z,0
2016-06-24T00:52:20.689Z,0
2016-06-24T00:53:19.453Z,0
2016-06-24T00:54:19.466Z,0
2016-06-24T00:55:21.296Z,0
2016-06-24T00:56:23.576Z,0
2016-06-24T00:57:20.367Z,0
2016-06-24T00:58:21.843Z,0
2016-06-24T00:59:20.686Z,0
2016-06-24T01:00:20.369Z,0
2016-06-24T01:01:20.094Z,0
2016-06-24T01:02:19.659Z,0
2016-06-24T01:03:20.697Z,0
2016-06-24T01:04:20.724Z,0
2016-06-24T01:05:22.467Z,0
2016-06-24T01:06:22.603Z,0
2016-06-24T01:07:21.997Z,0
2016-06-24T01:08:21.371Z,0
2016-06-24T01:09:19.509Z,0
2016-06-24T01:10:18.880Z,0
2016-06-24T01:11:21.469Z,0
2016-06-24T01:12:20.121Z,0
2016-06-24T01:13:23.015Z,0
2016-06-24T01:14:21.478Z,0
2016-06-24T01:15:22.123Z,0
2016-06-24T01:16:35.724Z,0
2016-06-24T01:17:34.376Z,0
2016-06-24T01:18:21.213Z,0
2016-06-24T01:19:18.894Z,0
2016-06-24T01:20:19.502Z,0
2016-06-24T01:21:19.496Z,0
2016-06-24T01:22:19.856Z,0
2016-06-24T01:23:20.512Z,0
2016-06-24T01:24:22.205Z,0
2016-06-24T01:25:20.779Z,0
2016-06-24T01:26:20.111Z,0
2016-06-24T01:27:20.126Z,0
2016-06-24T01:28:21.353Z,0
2016-06-24T01:29:20.738Z,0
2016-06-24T01:30:20.123Z,0
2016-06-24T01:31:20.137Z,0
2016-06-24T01:32:20.129Z,0
2016-06-24T01:33:20.144Z,0
2016-06-24T01:34:20.755Z,0
2016-06-24T01:35:19.511Z,0
2016-06-24T01:36:19.530Z,0
2016-06-24T01:37:20.138Z,0
2016-06-24T01:38:20.126Z,0
2016-06-24T01:39:20.125Z,0
2016-06-24T01:40:18.906Z,0
2016-06-24T01:41:20.143Z,0
2016-06-24T01:42:18.923Z,0
2016-06-24T01:43:20.770Z,0
2016-06-24T01:44:20.138Z,0
2016-06-24T01:45:19.546Z,0
2016-06-24T01:46:20.724Z,0
2016-06-24T01:47:20.163Z,0
2016-06-24T01:48:20.137Z,0
2016-06-24T01:49:18.949Z,0
2016-06-24T01:50:21.356Z,0
2016-06-24T01:51:18.908Z,0
2016-06-24T01:52:18.942Z,0
2016-06-24T01:53:18.904Z,0
2016-06-24T01:54:20.133Z,0
2016-06-24T01:55:20.145Z,0
2016-06-24T01:56:19.537Z,0
2016-06-24T01:57:18.935Z,0
2016-06-24T01:58:20.133Z,0
2016-06-24T01:59:21.371Z,0
2016-06-24T02:00:20.759Z,0
2016-06-24T02:01:19.529Z,0
2016-06-24T02:02:19.534Z,0
2016-06-24T02:03:20.169Z,0
2016-06-24T02:04:18.941Z,0
2016-06-24T02:05:20.769Z,0
2016-06-24T02:06:20.798Z,0
2016-06-24T02:07:19.529Z,0
2016-06-24T02:08:20.781Z,0
2016-06-24T02:09:19.559Z,0
2016-06-24T02:10:20.766Z,0
2016-06-24T02:11:20.155Z,0
2016-06-24T02:12:18.919Z,0
2016-06-24T02:13:20.163Z,0
2016-06-24T02:14:21.753Z,0
2016-06-24T02:15:22.823Z,0
2016-06-24T02:16:22.250Z,0
2016-06-24T02:17:21.661Z,0
2016-06-24T02:18:20.752Z,0
2016-06-24T02:19:21.442Z,0
2016-06-24T02:20:19.561Z,0
2016-06-24T02:21:20.147Z,0
2016-06-24T02:22:19.575Z,0
2016-06-24T02:24:20.486Z,0
2016-06-24T02:25:22.430Z,0
2016-06-24T02:26:22.555Z,0
2016-06-24T02:27:21.502Z,0
2016-06-24T02:28:20.929Z,5
2016-06-24T02:29:20.183Z,5
2016-06-24T02:30:20.155Z,5
2016-06-24T02:31:19.706Z,5
2016-06-24T02:32:20.655Z,5
2016-06-24T02:33:20.068Z,5
2016-06-24T02:34:34.878Z,5
2016-06-24T02:35:35.058Z,5
2016-06-24T02:36:19.927Z,5
2016-06-24T02:37:20.722Z,5
2016-06-24T02:38:20.771Z,10
2016-06-24T02:39:19.585Z,10
2016-06-24T02:40:20.795Z,10
2016-06-24T02:41:19.933Z,10
2016-06-24T02:42:35.492Z,10
2016-06-24T02:44:20.516Z,10
2016-06-24T02:45:21.567Z,10
2016-06-24T02:46:19.573Z,10
2016-06-24T02:47:20.216Z,15
2016-06-24T02:48:19.595Z,15
2016-06-24T02:49:19.555Z,15
2016-06-24T02:50:20.179Z,15
2016-06-24T02:51:19.577Z,15
2016-06-24T02:52:20.186Z,20
2016-06-24T02:53:20.789Z,20
2016-06-24T02:54:20.795Z,20
2016-06-24T02:55:20.781Z,20
2016-06-24T02:56:20.777Z,25
2016-06-24T02:57:21.424Z,25
2016-06-24T02:58:20.797Z,25
2016-06-24T02:59:20.791Z,25
2016-06-24T03:00:20.167Z,30
2016-06-24T03:01:20.806Z,30
2016-06-24T03:02:20.185Z,30
2016-06-24T03:03:19.587Z,30
2016-06-24T03:04:21.414Z,35
2016-06-24T03:05:20.787Z,35
2016-06-24T03:06:20.188Z,35
2016-06-24T03:07:20.786Z,35
2016-06-24T03:08:21.415Z,40
2016-06-24T03:09:20.195Z,40
2016-06-24T03:10:20.210Z,40
2016-06-24T03:11:21.411Z,45
2016-06-24T03:12:20.795Z,45
2016-06-24T03:13:20.789Z,45
2016-06-24T03:14:20.806Z,50
2016-06-24T03:15:18.972Z,50
2016-06-24T03:16:19.574Z,50
2016-06-24T03:17:18.969Z,55
2016-06-24T03:18:19.589Z,60
2016-06-24T03:19:20.201Z,60
2016-06-24T03:20:20.231Z,65
2016-06-24T03:21:19.577Z,70
2016-06-24T03:22:20.224Z,75
2016-06-24T03:23:20.186Z,80
2016-06-24T03:24:18.970Z,85
2016-06-24T03:25:19.602Z,85
2016-06-24T03:26:19.599Z,90
2016-06-24T03:27:21.413Z,95
2016-06-24T03:28:21.418Z,100
2016-06-24T03:29:20.825Z,105
2016-06-24T03:30:20.207Z,110
2016-06-24T03:31:20.217Z,120
2016-06-24T03:32:21.099Z,125
2016-06-24T03:33:23.767Z,120
2016-06-24T03:34:22.602Z,125
2016-06-24T03:35:20.704Z,130
2016-06-24T03:36:20.706Z,135
2016-06-24T03:37:20.235Z,140
2016-06-24T03:38:20.962Z,145
2016-06-24T03:39:20.219Z,150
2016-06-24T03:40:20.262Z,160
2016-06-24T03:41:19.624Z,165
2016-06-24T03:42:21.962Z,165
2016-06-24T03:43:21.762Z,180
2016-06-24T03:44:20.639Z,180
2016-06-24T03:45:21.631Z,185
2016-06-24T03:46:21.750Z,195
2016-06-24T03:47:19.681Z,200
2016-06-24T03:48:19.924Z,210
2016-06-24T03:49:21.476Z,215
2016-06-24T03:50:21.031Z,215
2016-06-24T03:51:22.702Z,220
2016-06-24T03:52:20.639Z,225
2016-06-24T03:53:35.057Z,235
2016-06-24T03:54:21.063Z,235
2016-06-24T03:55:21.863Z,250
2016-06-24T03:56:20.725Z,255
2016-06-24T03:57:20.307Z,260
2016-06-24T03:58:20.343Z,260
2016-06-24T03:59:21.136Z,265
2016-06-24T04:00:23.252Z,275
2016-06-24T04:01:20.213Z,285
2016-06-24T04:02:21.552Z,290
2016-06-24T04:03:20.957Z,300
2016-06-24T04:04:19.128Z,310
2016-06-24T04:05:20.366Z,315
2016-06-24T04:06:20.370Z,320
2016-06-24T04:07:20.990Z,320
2016-06-24T04:08:19.798Z,335
2016-06-24T04:09:20.384Z,340
2016-06-24T04:10:21.023Z,335
2016-06-24T04:11:21.049Z,345
2016-06-24T04:12:21.037Z,350
2016-06-24T04:13:20.439Z,360
2016-06-24T04:14:21.035Z,360
2016-06-24T04:15:19.226Z,370
2016-06-24T04:16:21.081Z,395
2016-06-24T04:17:21.167Z,415
2016-06-24T04:18:19.885Z,425
2016-06-24T04:19:21.118Z,420
2016-06-24T04:20:21.114Z,420
2016-06-24T04:21:20.502Z,440
2016-06-24T04:22:19.905Z,475
2016-06-24T04:23:19.322Z,455
2016-06-24T04:24:20.517Z,425
2016-06-24T04:25:20.565Z,420
2016-06-24T04:26:20.591Z,460
2016-06-24T04:27:19.966Z,475
2016-06-24T04:28:20.576Z,465
2016-06-24T04:29:21.203Z,465
2016-06-24T04:30:20.603Z,475
2016-06-24T04:31:20.022Z,490
2016-06-24T04:32:21.244Z,485
2016-06-24T04:33:20.032Z,485
2016-06-24T04:34:20.057Z,500
2016-06-24T04:35:20.672Z,520
2016-06-24T04:36:21.286Z,555
2016-06-24T04:37:21.292Z,595
2016-06-24T04:38:20.081Z,600
2016-06-24T04:39:20.697Z,545
2016-06-24T04:40:21.308Z,520
2016-06-24T04:41:20.134Z,545
2016-06-24T04:42:19.532Z,580
2016-06-24T04:43:21.368Z,605
2016-06-24T04:44:19.556Z,610
2016-06-24T04:45:22.010Z,630
2016-06-24T04:46:22.004Z,640
2016-06-24T04:47:20.809Z,640
2016-06-24T04:48:20.822Z,625
2016-06-24T04:49:21.461Z,625
2016-06-24T04:50:19.637Z,655
2016-06-24T04:52:23.034Z,705
2016-06-24T04:53:22.855Z,740
2016-06-24T04:54:22.051Z,775
2016-06-24T04:55:20.925Z,760
2016-06-24T04:56:21.143Z,735
2016-06-24T04:57:20.961Z,730
2016-06-24T04:58:20.959Z,740
2016-06-24T04:59:19.771Z,750
2016-06-24T05:00:24.385Z,775
2016-06-24T05:01:21.878Z,795
2016-06-24T05:02:23.476Z,800
2016-06-24T05:03:23.222Z,795
2016-06-24T05:04:22.433Z,810
2016-06-24T05:05:21.088Z,810
2016-06-24T05:06:20.613Z,805
2016-06-24T05:07:20.814Z,805
2016-06-24T05:08:21.928Z,820
2016-06-24T05:09:22.350Z,845
2016-06-24T05:10:35.822Z,880
2016-06-24T05:11:21.410Z,895
2016-06-24T05:12:22.541Z,885
2016-06-24T05:13:21.592Z,870
2016-06-24T05:14:22.402Z,875
2016-06-24T05:15:20.606Z,885
2016-06-24T05:16:21.251Z,875
2016-06-24T05:17:22.735Z,860
2016-06-24T05:18:21.382Z,885
2016-06-24T05:19:22.199Z,910
2016-06-24T05:20:21.606Z,940
2016-06-24T05:21:21.939Z,980
2016-06-24T05:22:35.963Z,1035
2016-06-24T05:23:20.934Z,1045
2016-06-24T05:24:21.680Z,1040
2016-06-24T05:25:20.790Z,1010
2016-06-24T05:26:22.046Z,990
2016-06-24T05:27:21.432Z,990
2016-06-24T05:28:20.840Z,1020
2016-06-24T05:29:21.461Z,1055
2016-06-24T05:30:20.251Z,1055
2016-06-24T05:31:21.487Z,1035
2016-06-24T05:32:22.126Z,1070
2016-06-24T05:33:22.127Z,1175
2016-06-24T05:34:22.160Z,1275
2016-06-24T05:35:20.966Z,1245
2016-06-24T05:36:20.998Z,1145
2016-06-24T05:37:20.386Z,1095
2016-06-24T05:38:21.633Z,1105
2016-06-24T05:39:20.433Z,1135
2016-06-24T05:40:21.051Z,1170
2016-06-24T05:41:21.721Z,1200
2016-06-24T05:42:22.325Z,1220
2016-06-24T05:43:21.718Z,1200
2016-06-24T05:44:20.511Z,1190
2016-06-24T05:45:21.756Z,1185
2016-06-24T05:46:21.779Z,1195
2016-06-24T05:47:20.584Z,1200
2016-06-24T05:48:21.225Z,1225
2016-06-24T05:49:22.462Z,1295
2016-06-24T05:50:21.245Z,1315
2016-06-24T05:51:21.884Z,1295
2016-06-24T05:52:21.899Z,1275
2016-06-24T05:53:20.698Z,1275
2016-06-24T05:54:21.934Z,1265
2016-06-24T05:55:22.588Z,1270
2016-06-24T05:56:22.582Z,1300
2016-06-24T05:57:22.012Z,1345
2016-06-24T05:58:22.004Z,1365
2016-06-24T05:59:21.422Z,1360
2016-06-24T06:00:22.671Z,1370
2016-06-24T06:01:22.690Z,1380
2016-06-24T06:02:22.711Z,1345
2016-06-24T06:03:22.723Z,1295
2016-06-24T06:04:22.135Z,1285
2016-06-24T06:05:22.774Z,1335
2016-06-24T06:06:22.798Z,1395
2016-06-24T06:07:21.618Z,1420
2016-06-24T06:08:21.585Z,1415
2016-06-24T06:09:24.574Z,1425
2016-06-24T06:10:25.514Z,1405
2016-06-24T06:11:24.085Z,1375
2016-06-24T06:12:24.586Z,1360
2016-06-24T06:13:23.252Z,1375
2016-06-24T06:14:24.381Z,1420
2016-06-24T06:15:23.683Z,1450
2016-06-24T06:16:22.442Z,1460
2016-06-24T06:17:23.367Z,1445
2016-06-24T06:18:21.816Z,1420
2016-06-24T06:19:24.643Z,1395
2016-06-24T06:20:24.837Z,1380
2016-06-24T06:21:23.636Z,1365
2016-06-24T06:22:22.483Z,1365
2016-06-24T06:23:22.497Z,1415
2016-06-24T06:24:23.794Z,1440
2016-06-24T06:25:22.540Z,1460
2016-06-24T06:26:23.178Z,1490
2016-06-24T06:27:22.638Z,1530
2016-06-24T06:28:22.794Z,1545
2016-06-24T06:29:22.023Z,1545
2016-06-24T06:30:23.460Z,1555
2016-06-24T06:31:23.997Z,1555
2016-06-24T06:32:22.698Z,1540
2016-06-24T06:33:22.110Z,1535
2016-06-24T06:34:23.530Z,1560
2016-06-24T06:35:23.387Z,1575
2016-06-24T06:36:38.157Z,1550
2016-06-24T06:37:23.158Z,1555
2016-06-24T06:38:23.146Z,1605
2016-06-24T06:39:22.286Z,1640
2016-06-24T06:40:23.459Z,1620
2016-06-24T06:41:22.274Z,1575
2016-06-24T06:42:22.944Z,1550
2016-06-24T06:43:23.533Z,1545
2016-06-24T06:44:22.383Z,1510
2016-06-24T06:45:24.192Z,1505
2016-06-24T06:46:22.989Z,1510
2016-06-24T06:47:22.411Z,1520
2016-06-24T06:48:23.011Z,1515
2016-06-24T06:49:23.045Z,1520
2016-06-24T06:50:22.460Z,1530
2016-06-24T06:51:23.068Z,1565
2016-06-24T06:52:23.112Z,1615
2016-06-24T06:53:23.119Z,1680
2016-06-24T06:54:22.540Z,1720
2016-06-24T06:55:21.946Z,1745
2016-06-24T06:56:24.443Z,1740
2016-06-24T06:57:23.841Z,1700
2016-06-24T06:58:23.240Z,1665
2016-06-24T06:59:23.865Z,1650
2016-06-24T07:00:23.268Z,1655
2016-06-24T07:01:23.305Z,1670
2016-06-24T07:02:22.708Z,1700
2016-06-24T07:03:23.950Z,1735
2016-06-24T07:04:24.567Z,1770
2016-06-24T07:05:24.607Z,1770
2016-06-24T07:06:24.022Z,1755
2016-06-24T07:07:23.425Z,1755
2016-06-24T07:08:22.828Z,1760
2016-06-24T07:09:23.458Z,1765
2016-06-24T07:10:22.884Z,1775
2016-06-24T07:11:23.515Z,1765
2016-06-24T07:12:24.131Z,1775
2016-06-24T07:13:22.952Z,1795
2016-06-24T07:14:24.193Z,1830
2016-06-24T07:15:24.214Z,1865
2016-06-24T07:16:24.237Z,1835
2016-06-24T07:17:24.354Z,1740
2016-06-24T07:18:23.686Z,1660
2016-06-24T07:19:23.693Z,1660
2016-06-24T07:20:24.956Z,1690
2016-06-24T07:21:24.347Z,1705
2016-06-24T07:22:22.541Z,1725
2016-06-24T07:23:23.864Z,1770
2016-06-24T07:24:23.182Z,1795
2016-06-24T07:25:23.816Z,1835
2016-06-24T07:26:23.811Z,1870
2016-06-24T07:27:23.243Z,1895
2016-06-24T07:28:28.079Z,1895
2016-06-24T07:29:24.535Z,1870
2016-06-24T07:30:25.155Z,1855
2016-06-24T07:31:23.479Z,1880
2016-06-24T07:32:24.014Z,1930
2016-06-24T07:33:24.611Z,1955
2016-06-24T07:34:24.060Z,1965
2016-06-24T07:35:24.858Z,1935
2016-06-24T07:36:24.689Z,1890
2016-06-24T07:37:26.420Z,1870
2016-06-24T07:38:26.382Z,1880
2016-06-24T07:39:23.795Z,1880
2016-06-24T07:40:23.265Z,1905
2016-06-24T07:41:24.466Z,1930
2016-06-24T07:42:25.518Z,1950
2016-06-24T07:43:23.620Z,1965
2016-06-24T07:44:24.261Z,1970
2016-06-24T07:46:25.500Z,2010
2016-06-24T07:47:24.548Z,2015
2016-06-24T07:48:24.936Z,1990
2016-06-24T07:49:23.730Z,1995
2016-06-24T07:50:25.028Z,2005
2016-06-24T07:51:24.382Z,2035
2016-06-24T07:52:24.557Z,2065
2016-06-24T07:53:23.819Z,2070
2016-06-24T07:54:25.649Z,2050
2016-06-24T07:55:27.228Z,2005
2016-06-24T07:56:25.346Z,1990
2016-06-24T07:57:25.144Z,2010
2016-06-24T07:58:25.152Z,2055
2016-06-24T07:59:24.055Z,2045
2016-06-24T08:00:23.959Z,2000
2016-06-24T08:01:24.011Z,1975
2016-06-24T08:02:24.608Z,1955
2016-06-24T08:03:24.044Z,1985
2016-06-24T08:04:23.494Z,2025
2016-06-24T08:05:24.823Z,2000
2016-06-24T08:06:24.698Z,1985
2016-06-24T08:07:24.742Z,1995
2016-06-24T08:08:24.740Z,1990
2016-06-24T08:09:24.765Z,1985
2016-06-24T08:10:25.406Z,1975
2016-06-24T08:11:25.434Z,2010
2016-06-24T08:12:26.087Z,2055
2016-06-24T08:13:25.454Z,2090
2016-06-24T08:14:24.882Z,2095
2016-06-24T08:15:24.309Z,2085
2016-06-24T08:16:26.144Z,2080
2016-06-24T08:17:25.650Z,2070
2016-06-24T08:18:25.569Z,2065
2016-06-24T08:19:23.780Z,2065
2016-06-24T08:20:24.407Z,2060
2016-06-24T08:21:25.026Z,2040
2016-06-24T08:22:25.681Z,2015
2016-06-24T08:23:25.140Z,2025
2016-06-24T08:24:25.138Z,2050
2016-06-24T08:25:26.336Z,2085
2016-06-24T08:26:26.358Z,2145
2016-06-24T08:27:25.776Z,2160
2016-06-24T08:28:25.194Z,2170
2016-06-24T08:29:23.966Z,2160
2016-06-24T08:30:25.210Z,2165
2016-06-24T08:31:25.238Z,2160
2016-06-24T08:32:24.023Z,2165
2016-06-24T08:33:25.870Z,2160
2016-06-24T08:34:24.686Z,2195
2016-06-24T08:35:25.919Z,2195
2016-06-24T08:36:25.939Z,2175
2016-06-24T08:37:25.977Z,2165
2016-06-24T08:38:25.991Z,2140
2016-06-24T08:39:25.386Z,2140
2016-06-24T08:40:26.025Z,2170
2016-06-24T08:41:26.074Z,2215
2016-06-24T08:42:24.848Z,2190
2016-06-24T08:43:25.497Z,2175
2016-06-24T08:44:24.899Z,2165
2016-06-24T08:45:26.144Z,2180
2016-06-24T08:47:26.141Z,2175
2016-06-24T08:48:27.184Z,2205
2016-06-24T08:49:26.899Z,2205
2016-06-24T08:50:26.811Z,2230
2016-06-24T08:51:25.491Z,2230
2016-06-24T08:52:26.294Z,2240
2016-06-24T08:53:25.070Z,2245
2016-06-24T08:54:25.714Z,2245
2016-06-24T08:56:27.943Z,2255
2016-06-24T08:57:29.057Z,2220
2016-06-24T08:58:27.321Z,2035
2016-06-24T08:59:27.358Z,1210
2016-06-24T09:00:26.697Z,360
2016-06-24T09:01:26.502Z,260
2016-06-24T09:02:24.652Z,255
2016-06-24T09:03:27.146Z,250
2016-06-24T09:05:41.904Z,250
2016-06-24T09:06:26.386Z,250
2016-06-24T09:07:41.515Z,250
2016-06-24T09:08:25.411Z,250
2016-06-24T09:09:26.387Z,250
2016-06-24T09:10:26.020Z,250
2016-06-24T09:11:26.661Z,250
2016-06-24T09:12:26.662Z,250
2016-06-24T09:13:27.068Z,250
2016-06-24T09:14:41.331Z,255
2016-06-24T09:15:26.700Z,250
2016-06-24T09:16:26.716Z,245
2016-06-24T09:17:27.340Z,245
2016-06-24T09:18:26.441Z,250
2016-06-24T09:19:26.407Z,250
2016-06-24T09:20:26.190Z,250
2016-06-24T09:21:25.569Z,250
2016-06-24T09:22:25.588Z,245
2016-06-24T09:23:25.019Z,245
2016-06-24T09:24:26.248Z,245
2016-06-24T09:25:26.842Z,245
2016-06-24T09:26:25.654Z,245
2016-06-24T09:27:25.702Z,245
2016-06-24T09:28:26.267Z,245
2016-06-24T09:29:26.302Z,245
2016-06-24T09:30:25.681Z,245
2016-06-24T09:31:26.922Z,245
2016-06-24T09:32:26.926Z,245
2016-06-24T09:33:25.726Z,245
2016-06-24T09:34:26.969Z,245
2016-06-24T09:35:26.967Z,240
2016-06-24T09:36:25.775Z,240
2016-06-24T09:37:26.374Z,240
2016-06-24T09:38:25.787Z,240
2016-06-24T09:39:25.818Z,240
2016-06-24T09:40:26.411Z,240
2016-06-24T09:41:25.817Z,240
2016-06-24T09:42:26.522Z,240
2016-06-24T09:43:27.072Z,240
2016-06-24T09:44:25.849Z,240
2016-06-24T09:45:25.858Z,240
2016-06-24T09:46:27.100Z,240
2016-06-24T09:47:27.123Z,235
2016-06-24T09:48:27.109Z,235
2016-06-24T09:49:27.744Z,240
2016-06-24T09:50:26.559Z,240
2016-06-24T09:51:27.152Z,240
2016-06-24T09:52:27.171Z,240
2016-06-24T09:53:27.166Z,240
2016-06-24T09:54:27.189Z,240
2016-06-24T09:55:26.572Z,235
2016-06-24T09:56:25.969Z,235
2016-06-24T09:57:25.993Z,240
2016-06-24T09:58:26.614Z,235
2016-06-24T09:59:27.245Z,235
2016-06-24T10:00:27.251Z,235
2016-06-24T10:01:27.231Z,235
2016-06-24T10:02:26.665Z,235
2016-06-24T10:03:26.670Z,240
2016-06-24T10:04:27.904Z,240
2016-06-24T10:05:27.685Z,240
2016-06-24T10:06:29.863Z,240
2016-06-24T10:07:28.291Z,245
2016-06-24T10:08:26.690Z,245
2016-06-24T10:09:27.599Z,245
2016-06-24T10:10:26.696Z,250
2016-06-24T10:11:26.752Z,240
2016-06-24T10:12:26.762Z,240
2016-06-24T10:13:26.170Z,240
2016-06-24T10:14:29.807Z,240
2016-06-24T10:15:28.484Z,240
2016-06-24T10:16:28.291Z,235
2016-06-24T10:17:26.863Z,240
2016-06-24T10:18:28.498Z,235
2016-06-24T10:19:28.267Z,235
2016-06-24T10:20:27.598Z,230
2016-06-24T10:21:26.985Z,235
2016-06-24T10:22:28.579Z,235
2016-06-24T10:24:27.606Z,235
2016-06-24T10:25:26.406Z,235
2016-06-24T10:26:28.072Z,240
2016-06-24T10:27:28.304Z,230
2016-06-24T10:28:25.719Z,230
2016-06-24T10:29:26.461Z,230
2016-06-24T10:30:26.355Z,230
2016-06-24T10:31:29.174Z,230
2016-06-24T10:32:27.969Z,230
2016-06-24T10:33:27.648Z,235
2016-06-24T10:34:27.610Z,235
2016-06-24T10:35:26.415Z,235
2016-06-24T10:36:41.894Z,235
2016-06-24T10:37:26.418Z,235
2016-06-24T10:38:27.203Z,235
2016-06-24T10:39:26.466Z,235
2016-06-24T10:40:27.669Z,235
2016-06-24T10:41:27.074Z,240
2016-06-24T10:42:26.499Z,240
2016-06-24T10:43:27.105Z,240
2016-06-24T10:44:26.523Z,240
2016-06-24T10:45:28.328Z,235
2016-06-24T10:46:28.354Z,235
2016-06-24T10:47:28.370Z,230
2016-06-24T10:48:25.929Z,230
2016-06-24T10:49:28.100Z,230
2016-06-24T10:50:27.179Z,230
2016-06-24T10:51:27.810Z,230
2016-06-24T10:52:27.798Z,225
2016-06-24T10:53:26.591Z,225
2016-06-24T10:54:27.843Z,225
2016-06-24T10:55:26.610Z,225
2016-06-24T10:56:27.843Z,225
2016-06-24T10:57:27.232Z,225
2016-06-24T10:58:26.654Z,225
2016-06-24T10:59:27.278Z,225
2016-06-24T11:00:26.075Z,225
2016-06-24T11:01:27.884Z,225
2016-06-24T11:02:26.668Z,225
2016-06-24T11:03:27.907Z,225
2016-06-24T11:04:27.950Z,225
2016-06-24T11:05:26.718Z,225
2016-06-24T11:06:27.951Z,225
2016-06-24T11:07:27.346Z,220
2016-06-24T11:08:27.357Z,220
2016-06-24T11:09:26.771Z,220
2016-06-24T11:10:26.746Z,220
2016-06-24T11:11:27.398Z,220
2016-06-24T11:12:28.630Z,220
2016-06-24T11:13:28.009Z,220
2016-06-24T11:14:28.037Z,220
2016-06-24T11:15:28.053Z,220
2016-06-24T11:16:26.243Z,220
2016-06-24T11:17:27.497Z,220
2016-06-24T11:18:26.864Z,220
2016-06-24T11:19:28.099Z,220
2016-06-24T11:20:26.896Z,220
2016-06-24T11:21:26.310Z,225
2016-06-24T11:22:27.547Z,225
2016-06-24T11:23:29.100Z,225
2016-06-24T11:25:28.138Z,220
2016-06-24T11:26:27.747Z,220
2016-06-24T11:27:27.570Z,220
2016-06-24T11:28:27.307Z,220
2016-06-24T11:29:29.261Z,220
2016-06-24T11:30:27.080Z,225
2016-06-24T11:31:28.191Z,225
2016-06-24T11:32:32.336Z,220
2016-06-24T11:33:31.088Z,220
2016-06-24T11:34:28.984Z,220
2016-06-24T11:35:30.266Z,220
2016-06-24T11:36:27.659Z,220
2016-06-24T11:37:28.367Z,220
2016-06-24T11:38:28.918Z,215
2016-06-24T11:39:29.774Z,215
2016-06-24T11:40:42.883Z,215
2016-06-24T11:41:30.242Z,215
2016-06-24T11:42:28.346Z,215
2016-06-24T11:43:43.211Z,215
2016-06-24T11:44:27.122Z,215
2016-06-24T11:45:27.487Z,215
2016-06-24T11:46:29.123Z,215
2016-06-24T11:47:28.283Z,215
2016-06-24T11:48:26.570Z,215
2016-06-24T11:49:27.791Z,215
2016-06-24T11:50:28.035Z,220
2016-06-24T11:51:28.483Z,215
2016-06-24T11:52:43.349Z,215
2016-06-24T11:53:28.432Z,215
2016-06-24T11:54:28.598Z,215
2016-06-24T11:55:26.931Z,215
2016-06-24T11:56:27.278Z,215
2016-06-24T11:57:28.492Z,215
2016-06-24T11:58:29.114Z,215
2016-06-24T11:59:27.298Z,215
2016-06-24T12:00:27.923Z,215
2016-06-24T12:01:27.345Z,215
2016-06-24T12:02:26.742Z,215
2016-06-24T12:03:28.563Z,215
2016-06-24T12:04:28.585Z,215
2016-06-24T12:05:27.983Z,215
2016-06-24T12:06:29.214Z,215
2016-06-24T12:07:29.206Z,215
2016-06-24T12:08:28.012Z,215
2016-06-24T12:09:28.610Z,215
2016-06-24T12:10:29.263Z,215
2016-06-24T12:11:28.027Z,215
2016-06-24T12:12:27.463Z,215
2016-06-24T12:13:28.662Z,220
2016-06-24T12:14:29.272Z,220
2016-06-24T12:15:28.126Z,220
2016-06-24T12:16:27.487Z,220
2016-06-24T12:17:28.259Z,215
2016-06-24T12:18:28.109Z,220
2016-06-24T12:19:28.753Z,220
2016-06-24T12:20:28.734Z,220
2016-06-24T12:21:28.349Z,220
2016-06-24T12:22:28.146Z,220
2016-06-24T12:23:28.755Z,220
2016-06-24T12:24:27.578Z,220
2016-06-24T12:25:28.199Z,220
2016-06-24T12:26:28.185Z,220
2016-06-24T12:27:29.423Z,220
2016-06-24T12:28:27.647Z,220
2016-06-24T12:29:28.836Z,220
2016-06-24T12:30:28.824Z,215
2016-06-24T12:31:28.847Z,215
2016-06-24T12:32:27.632Z,215
2016-06-24T12:33:27.663Z,215
2016-06-24T12:34:28.872Z,210
2016-06-24T12:35:28.299Z,220
2016-06-24T12:36:28.303Z,215
2016-06-24T12:37:28.310Z,210
2016-06-24T12:38:28.918Z,210
2016-06-24T12:39:27.723Z,210
2016-06-24T12:40:28.938Z,210
2016-06-24T12:41:28.335Z,210
2016-06-24T12:42:30.960Z,210
2016-06-24T12:43:29.668Z,210
2016-06-24T12:44:28.991Z,205
2016-06-24T12:45:29.274Z,205
2016-06-24T12:46:29.842Z,205
2016-06-24T12:47:27.802Z,205
2016-06-24T12:48:29.022Z,205
2016-06-24T12:49:29.046Z,205
2016-06-24T12:50:28.454Z,205
2016-06-24T12:51:31.675Z,205
2016-06-24T12:52:31.684Z,205
2016-06-24T12:53:28.133Z,200
2016-06-24T12:54:28.877Z,200
2016-06-24T12:55:29.956Z,200
2016-06-24T12:56:29.159Z,200
2016-06-24T12:57:28.643Z,200
2016-06-24T12:58:29.318Z,200
2016-06-24T12:59:29.167Z,200
2016-06-24T13:00:30.561Z,200
2016-06-24T13:01:43.619Z,200
2016-06-24T13:02:28.553Z,200
2016-06-24T13:03:43.970Z,195
2016-06-24T13:04:29.197Z,195
2016-06-24T13:05:28.614Z,195
2016-06-24T13:06:28.015Z,195
2016-06-24T13:07:29.243Z,195
2016-06-24T13:08:43.666Z,190
2016-06-24T13:09:29.566Z,190
2016-06-24T13:10:29.611Z,190
2016-06-24T13:11:28.826Z,190
2016-06-24T13:12:28.706Z,190
2016-06-24T13:13:29.611Z,190
2016-06-24T13:14:29.040Z,190
2016-06-24T13:15:28.711Z,190
2016-06-24T13:16:29.354Z,190
2016-06-24T13:17:29.971Z,190
2016-06-24T13:18:29.341Z,190
2016-06-24T13:19:28.757Z,190
2016-06-24T13:20:28.969Z,190
2016-06-24T13:21:28.179Z,190
2016-06-24T13:22:28.780Z,190
2016-06-24T13:23:29.399Z,190
2016-06-24T13:24:28.207Z,185
2016-06-24T13:25:28.840Z,185
2016-06-24T13:26:29.453Z,185
2016-06-24T13:27:30.069Z,185
2016-06-24T13:28:27.617Z,185
2016-06-24T13:29:28.861Z,185
2016-06-24T13:30:28.856Z,185
2016-06-24T13:31:29.511Z,185
2016-06-24T13:32:28.342Z,185
2016-06-24T13:33:30.125Z,185
2016-06-24T13:34:29.534Z,180
2016-06-24T13:35:28.327Z,180
2016-06-24T13:36:29.539Z,180
2016-06-24T13:37:28.945Z,180
2016-06-24T13:38:29.591Z,180
2016-06-24T13:39:28.366Z,180
2016-06-24T13:40:29.630Z,175
2016-06-24T13:41:28.995Z,175
2016-06-24T13:42:29.630Z,175
2016-06-24T13:43:29.030Z,175
2016-06-24T13:44:28.423Z,175
2016-06-24T13:45:28.418Z,175
2016-06-24T13:46:29.646Z,175
2016-06-24T13:47:29.649Z,175
2016-06-24T13:48:29.694Z,175
2016-06-24T13:49:28.461Z,175
2016-06-24T13:50:29.078Z,175
2016-06-24T13:51:28.493Z,175
2016-06-24T13:52:29.706Z,175
2016-06-24T13:53:29.727Z,175
2016-06-24T13:54:29.775Z,180
2016-06-24T13:55:29.127Z,180
2016-06-24T13:56:28.527Z,180
2016-06-24T13:57:29.162Z,180
2016-06-24T13:58:29.187Z,180
2016-06-24T13:59:29.183Z,180
2016-06-24T14:00:31.206Z,180